createdAt,value
2017-08-01T00:00:54.764Z,81.60
2017-08-01T00:03:22.268Z,81.20
2017-08-01T00:05:49.785Z,81.20
2017-08-01T00:08:17.277Z,81.00
2017-08-01T00:10:44.792Z,80.90
2017-08-01T00:13:12.288Z,80.20
2017-08-01T00:15:40.719Z,81.10
2017-08-01T00:18:08.224Z,79.70
2017-08-01T00:20:35.736Z,79.40
2017-08-01T00:23:03.246Z,79.50
2017-08-01T00:25:30.769Z,79.30
2017-08-01T00:27:58.277Z,79.20
2017-08-01T00:30:25.803Z,79.00
2017-08-01T00:32:53.310Z,79.10
2017-08-01T00:35:20.818Z,79.10
2017-08-01T00:37:48.340Z,78.70
2017-08-01T00:40:15.840Z,78.80
2017-08-01T00:42:46.605Z,78.40
2017-08-01T00:45:14.112Z,78.00
2017-08-01T00:47:41.629Z,78.40
2017-08-01T00:50:09.133Z,78.10
2017-08-01T00:52:36.649Z,78.20
2017-08-01T00:55:04.165Z,78.80
2017-08-01T00:57:31.673Z,78.60
2017-08-01T00:59:59.172Z,78.50
2017-08-01T01:02:26.686Z,78.70
2017-08-01T01:04:54.183Z,78.70
2017-08-01T01:07:21.725Z,78.10
2017-08-01T01:09:49.212Z,78.40
2017-08-01T01:12:16.719Z,78.40
2017-08-01T01:14:44.225Z,78.20
2017-08-01T01:17:11.755Z,78.70
2017-08-01T01:19:39.253Z,78.80
2017-08-01T01:22:06.772Z,78.90
2017-08-01T01:24:34.273Z,79.10
2017-08-01T01:27:01.788Z,79.40
2017-08-01T01:29:29.285Z,79.60
2017-08-01T01:31:56.801Z,79.30
2017-08-01T01:34:24.300Z,79.40
2017-08-01T01:36:51.828Z,79.50
2017-08-01T01:39:19.324Z,79.80
2017-08-01T01:41:50.669Z,79.80
2017-08-01T01:44:18.182Z,79.80
2017-08-01T01:46:45.700Z,79.90
2017-08-01T01:49:13.201Z,79.90
2017-08-01T01:51:40.721Z,80.00
2017-08-01T01:54:08.220Z,79.80
2017-08-01T01:56:35.741Z,79.80
2017-08-01T01:59:03.238Z,79.80
2017-08-01T02:01:30.754Z,79.70
2017-08-01T02:03:58.260Z,79.60
2017-08-01T02:06:25.773Z,79.60
2017-08-01T02:08:53.276Z,79.50
2017-08-01T02:11:20.809Z,79.30
2017-08-01T02:13:48.336Z,79.10
2017-08-01T02:16:15.850Z,79.60
2017-08-01T02:18:43.343Z,79.90
2017-08-01T02:21:10.860Z,80.00
2017-08-01T02:23:38.361Z,80.60
2017-08-01T02:26:06.740Z,81.20
2017-08-01T02:28:34.223Z,82.50
2017-08-01T02:31:01.745Z,83.70
2017-08-01T02:33:29.251Z,85.50
2017-08-01T02:35:56.789Z,86.30
2017-08-01T02:38:24.288Z,87.10
2017-08-01T02:40:51.819Z,88.30
2017-08-01T02:43:22.897Z,90.40
2017-08-01T02:45:50.428Z,92.20
2017-08-01T02:48:17.935Z,93.90
2017-08-01T02:50:45.456Z,95.00
2017-08-01T02:53:12.965Z,95.60
2017-08-01T02:55:40.509Z,95.70
2017-08-01T02:58:08.022Z,96.30
2017-08-01T03:00:35.555Z,96.70
2017-08-01T03:03:03.058Z,96.90
2017-08-01T03:05:30.587Z,97.00
2017-08-01T03:07:58.098Z,97.10
2017-08-01T03:10:25.617Z,97.10
2017-08-01T03:12:53.124Z,97.10
2017-08-01T03:15:20.652Z,97.00
2017-08-01T03:17:48.160Z,97.20
2017-08-01T03:20:15.693Z,97.20
2017-08-01T03:22:43.189Z,97.10
2017-08-01T03:25:10.713Z,97.10
2017-08-01T03:27:38.221Z,97.30
2017-08-01T03:30:05.746Z,97.20
2017-08-01T03:32:33.265Z,97.60
2017-08-01T03:35:00.793Z,97.50
2017-08-01T03:37:28.292Z,97.50
2017-08-01T03:39:55.824Z,97.60
2017-08-01T03:42:29.157Z,97.70
2017-08-01T03:44:56.688Z,97.60
2017-08-01T03:47:24.186Z,97.70
2017-08-01T03:49:55.245Z,97.70
2017-08-01T03:52:22.749Z,97.80
2017-08-01T03:54:50.267Z,98.00
2017-08-01T03:57:17.756Z,98.00
2017-08-01T03:59:45.300Z,98.20
2017-08-01T04:02:12.793Z,98.30
2017-08-01T04:04:40.310Z,98.30
2017-08-01T04:07:07.804Z,98.40
2017-08-01T04:09:35.339Z,98.50
2017-08-01T04:12:02.836Z,98.80
2017-08-01T04:14:30.349Z,98.90
2017-08-01T04:16:57.852Z,98.90
2017-08-01T04:19:25.388Z,98.90
2017-08-01T04:21:52.911Z,98.90
2017-08-01T04:24:20.428Z,98.90
2017-08-01T04:26:47.935Z,98.90
2017-08-01T04:29:15.458Z,98.80
2017-08-01T04:31:42.988Z,98.70
2017-08-01T04:34:10.512Z,98.50
2017-08-01T04:36:38.008Z,98.40
2017-08-01T04:39:05.537Z,98.20
2017-08-01T04:41:33.055Z,98.20
2017-08-01T04:44:00.563Z,98.00
2017-08-01T04:46:28.104Z,97.70
2017-08-01T04:48:58.747Z,97.10
2017-08-01T04:51:26.268Z,96.60
2017-08-01T04:53:53.769Z,96.20
2017-08-01T04:56:21.270Z,95.40
2017-08-01T04:58:48.788Z,94.00
2017-08-01T05:01:16.281Z,92.90
2017-08-01T05:03:43.804Z,92.30
2017-08-01T05:06:11.301Z,91.10
2017-08-01T05:08:38.798Z,90.50
2017-08-01T05:11:06.342Z,90.70
2017-08-01T05:13:33.844Z,91.50
2017-08-01T05:16:01.360Z,91.40
2017-08-01T05:18:28.859Z,91.10
2017-08-01T05:20:56.357Z,90.50
2017-08-01T05:23:23.872Z,87.40
2017-08-01T05:25:51.373Z,84.30
2017-08-01T05:28:18.880Z,82.40
2017-08-01T05:30:46.394Z,82.30
2017-08-01T05:33:13.920Z,81.50
2017-08-01T05:35:41.416Z,81.20
2017-08-01T05:38:08.909Z,81.50
2017-08-01T05:40:36.415Z,83.80
2017-08-01T05:43:03.921Z,85.60
2017-08-01T05:45:31.450Z,86.90
2017-08-01T05:48:02.165Z,88.50
2017-08-01T05:50:29.701Z,89.60
2017-08-01T05:52:57.215Z,90.30
2017-08-01T05:55:24.741Z,90.50
2017-08-01T05:57:52.271Z,90.60
2017-08-01T06:00:19.787Z,90.70
2017-08-01T06:02:47.288Z,90.70
2017-08-01T06:05:14.816Z,90.40
2017-08-01T06:07:42.317Z,90.40
2017-08-01T06:10:09.831Z,90.50
2017-08-01T06:12:37.332Z,90.10
2017-08-01T06:15:04.852Z,88.90
2017-08-01T06:17:32.369Z,88.20
2017-08-01T06:19:59.942Z,88.10
2017-08-01T06:22:27.462Z,88.00
2017-08-01T06:24:55.002Z,87.80
2017-08-01T06:27:22.524Z,87.60
2017-08-01T06:29:50.065Z,87.50
2017-08-01T06:32:17.584Z,85.80
2017-08-01T06:34:45.108Z,83.10
2017-08-01T06:37:12.604Z,79.60
2017-08-01T06:39:40.128Z,77.60
2017-08-01T06:42:07.632Z,77.60
2017-08-01T06:44:35.152Z,77.10
2017-08-01T06:47:02.653Z,75.50
2017-08-01T06:49:33.501Z,76.50
2017-08-01T06:52:01.009Z,77.40
2017-08-01T06:54:28.548Z,78.20
2017-08-01T06:56:59.291Z,78.40
2017-08-01T06:59:26.825Z,79.90
2017-08-01T07:01:54.341Z,81.60
2017-08-01T07:04:21.869Z,82.50
2017-08-01T07:06:49.386Z,82.70
2017-08-01T07:09:16.936Z,84.40
2017-08-01T07:11:44.446Z,83.00
2017-08-01T07:14:11.986Z,84.30
2017-08-01T07:16:39.493Z,83.90
2017-08-01T07:19:10.428Z,84.40
2017-08-01T07:21:37.920Z,83.90
2017-08-01T07:24:05.444Z,83.80
2017-08-01T07:26:32.944Z,83.10
2017-08-01T07:29:00.473Z,84.00
2017-08-01T07:31:27.987Z,83.70
2017-08-01T07:33:55.513Z,83.80
2017-08-01T07:36:23.008Z,84.60
2017-08-01T07:38:50.537Z,83.70
2017-08-01T07:41:18.049Z,83.70
2017-08-01T07:43:45.562Z,83.80
2017-08-01T07:46:13.074Z,82.70
2017-08-01T07:48:40.601Z,83.10
2017-08-01T07:51:08.113Z,82.70
2017-08-01T07:53:35.633Z,82.80
2017-08-01T07:56:03.134Z,85.30
2017-08-01T07:58:30.678Z,82.10
2017-08-01T08:00:58.185Z,82.70
2017-08-01T08:03:25.718Z,81.70
2017-08-01T08:05:53.224Z,80.80
2017-08-01T08:08:20.744Z,81.70
2017-08-01T08:10:48.241Z,81.20
2017-08-01T08:13:15.775Z,81.10
2017-08-01T08:15:43.273Z,79.10
2017-08-01T08:18:14.316Z,79.50
2017-08-01T08:20:41.816Z,78.40
2017-08-01T08:23:09.340Z,78.60
2017-08-01T08:25:36.846Z,78.10
2017-08-01T08:28:04.382Z,77.90
2017-08-01T08:30:31.894Z,76.80
2017-08-01T08:32:59.422Z,78.10
2017-08-01T08:35:27.072Z,78.40
2017-08-01T08:37:54.617Z,77.30
2017-08-01T08:40:22.120Z,77.10
2017-08-01T08:42:49.637Z,76.20
2017-08-01T08:45:17.142Z,76.90
2017-08-01T08:47:44.665Z,77.90
2017-08-01T08:50:12.169Z,75.80
2017-08-01T08:52:39.684Z,75.90
2017-08-01T08:55:07.193Z,74.10
2017-08-01T08:57:34.715Z,74.20
2017-08-01T09:00:02.214Z,73.10
2017-08-01T09:02:29.754Z,75.30
2017-08-01T09:04:57.260Z,75.70
2017-08-01T09:07:24.789Z,73.40
2017-08-01T09:09:52.296Z,72.00
2017-08-01T09:12:19.825Z,71.50
2017-08-01T09:14:47.339Z,69.70
2017-08-01T09:17:14.856Z,70.70
2017-08-01T09:19:46.185Z,70.00
2017-08-01T09:22:13.714Z,69.90
2017-08-01T09:24:41.454Z,69.60
2017-08-01T09:27:09.009Z,69.20
2017-08-01T09:29:36.512Z,68.70
2017-08-01T09:32:04.049Z,68.60
2017-08-01T09:34:31.553Z,69.20
2017-08-01T09:36:59.097Z,68.70
2017-08-01T09:39:26.622Z,67.10
2017-08-01T09:41:54.154Z,67.80
2017-08-01T09:44:21.674Z,68.80
2017-08-01T09:46:49.205Z,69.30
2017-08-01T09:49:16.734Z,67.90
2017-08-01T09:51:44.270Z,66.20
2017-08-01T09:54:11.769Z,68.30
2017-08-01T09:56:39.289Z,67.20
2017-08-01T09:59:06.886Z,67.90
2017-08-01T10:01:34.460Z,68.80
2017-08-01T10:04:01.981Z,67.00
2017-08-01T10:06:29.586Z,68.10
2017-08-01T10:08:57.113Z,66.70
2017-08-01T10:11:24.653Z,67.70
2017-08-01T10:13:52.189Z,66.10
2017-08-01T10:16:19.817Z,65.20
2017-08-01T10:18:50.848Z,65.60
2017-08-01T10:21:18.375Z,64.30
2017-08-01T10:23:45.873Z,64.50
2017-08-01T10:26:13.373Z,65.60
2017-08-01T10:28:40.890Z,65.00
2017-08-01T10:31:08.394Z,66.50
2017-08-01T10:33:35.929Z,66.20
2017-08-01T10:36:03.429Z,64.90
2017-08-01T10:38:30.946Z,65.30
2017-08-01T10:40:58.446Z,66.40
2017-08-01T10:43:25.963Z,66.20
2017-08-01T10:45:57.484Z,66.50
2017-08-01T10:48:25.017Z,65.20
2017-08-01T10:50:52.522Z,64.30
2017-08-01T10:53:20.033Z,63.20
2017-08-01T10:55:49.536Z,62.50
2017-08-01T10:58:17.049Z,64.00
2017-08-01T11:00:44.545Z,62.10
2017-08-01T11:03:12.076Z,61.50
2017-08-01T11:05:39.590Z,61.60
2017-08-01T11:08:07.151Z,62.70
2017-08-01T11:10:35.008Z,62.10
2017-08-01T11:13:02.667Z,61.20
2017-08-01T11:15:30.437Z,61.60
2017-08-01T11:17:58.113Z,61.00
2017-08-01T11:20:25.638Z,59.90
2017-08-01T11:22:53.195Z,60.80
2017-08-01T11:25:20.712Z,58.90
2017-08-01T11:27:48.220Z,59.30
2017-08-01T11:30:15.725Z,59.90
2017-08-01T11:32:43.240Z,55.60
2017-08-01T11:35:14.072Z,56.30
2017-08-01T11:37:41.589Z,57.80
2017-08-01T11:40:09.084Z,58.10
2017-08-01T11:42:36.600Z,59.50
2017-08-01T11:45:04.090Z,59.60
2017-08-01T11:47:31.608Z,59.00
2017-08-01T11:49:59.111Z,59.90
2017-08-01T11:52:26.650Z,60.60
2017-08-01T11:54:54.145Z,59.10
2017-08-01T11:57:21.668Z,58.70
2017-08-01T11:59:49.213Z,59.70
2017-08-01T12:02:16.733Z,60.00
2017-08-01T12:04:44.230Z,58.60
2017-08-01T12:07:11.764Z,58.00
2017-08-01T12:09:39.273Z,58.30
2017-08-01T12:12:06.796Z,58.20
2017-08-01T12:14:34.300Z,58.60
2017-08-01T12:17:01.822Z,56.90
2017-08-01T12:19:29.330Z,55.80
2017-08-01T12:21:56.851Z,55.80
2017-08-01T12:24:24.357Z,56.10
2017-08-01T12:26:51.867Z,58.40
2017-08-01T12:29:19.380Z,58.70
2017-08-01T12:31:46.894Z,58.80
2017-08-01T12:34:14.385Z,60.10
2017-08-01T12:36:41.897Z,59.70
2017-08-01T12:39:09.389Z,58.80
2017-08-01T12:41:36.903Z,60.00
2017-08-01T12:44:04.392Z,59.70
2017-08-01T12:46:31.896Z,59.50
2017-08-01T12:48:59.384Z,59.50
2017-08-01T12:51:26.910Z,59.10
2017-08-01T12:53:54.408Z,59.10
2017-08-01T12:56:21.926Z,58.50
2017-08-01T12:58:49.425Z,57.80
2017-08-01T13:01:16.935Z,57.80
2017-08-01T13:03:44.441Z,57.50
2017-08-01T13:06:11.960Z,57.30
2017-08-01T13:08:39.457Z,57.40
2017-08-01T13:11:06.989Z,58.10
2017-08-01T13:13:34.486Z,58.30
2017-08-01T13:16:01.997Z,57.60
2017-08-01T13:18:29.495Z,59.10
2017-08-01T13:20:57.012Z,57.00
2017-08-01T13:23:24.503Z,56.40
2017-08-01T13:25:52.018Z,56.50
2017-08-01T13:28:19.503Z,55.40
2017-08-01T13:30:50.348Z,56.10
2017-08-01T13:33:17.852Z,57.30
2017-08-01T13:35:45.372Z,56.50
2017-08-01T13:38:12.883Z,57.10
2017-08-01T13:40:40.406Z,57.50
2017-08-01T13:43:07.896Z,56.90
2017-08-01T13:45:39.269Z,56.90
2017-08-01T13:48:06.774Z,58.00
2017-08-01T13:50:34.307Z,56.60
2017-08-01T13:53:01.830Z,56.40
2017-08-01T13:55:29.348Z,57.50
2017-08-01T13:57:56.850Z,57.50
2017-08-01T14:00:24.369Z,57.10
2017-08-01T14:02:51.873Z,55.90
2017-08-01T14:05:19.422Z,57.40
2017-08-01T14:07:46.926Z,58.10
2017-08-01T14:10:14.454Z,55.30
2017-08-01T14:12:41.956Z,54.40
2017-08-01T14:15:09.469Z,53.50
2017-08-01T14:17:36.973Z,53.50
2017-08-01T14:20:04.484Z,54.20
2017-08-01T14:22:31.988Z,55.00
2017-08-01T14:24:59.524Z,55.10
2017-08-01T14:27:27.037Z,54.20
2017-08-01T14:29:54.561Z,54.50
2017-08-01T14:32:22.077Z,53.10
2017-08-01T14:34:49.596Z,53.20
2017-08-01T14:37:17.121Z,53.00
2017-08-01T14:39:44.638Z,54.40
2017-08-01T14:42:12.145Z,53.20
2017-08-01T14:44:42.794Z,53.10
2017-08-01T14:47:10.295Z,55.60
2017-08-01T14:49:37.835Z,58.10
2017-08-01T14:52:05.328Z,60.20
2017-08-01T14:54:32.858Z,64.00
2017-08-01T14:57:00.369Z,67.00
2017-08-01T14:59:27.898Z,68.80
2017-08-01T15:01:55.406Z,70.90
2017-08-01T15:04:22.931Z,71.80
2017-08-01T15:06:50.426Z,70.20
2017-08-01T15:09:17.952Z,71.40
2017-08-01T15:11:45.445Z,67.00
2017-08-01T15:14:12.953Z,67.50
2017-08-01T15:16:40.436Z,69.30
2017-08-01T15:19:07.954Z,69.30
2017-08-01T15:21:35.445Z,69.40
2017-08-01T15:24:02.957Z,69.60
2017-08-01T15:26:30.449Z,69.60
2017-08-01T15:28:57.974Z,69.00
2017-08-01T15:31:25.485Z,69.70
2017-08-01T15:33:53.009Z,70.00
2017-08-01T15:36:20.523Z,70.70
2017-08-01T15:38:48.040Z,69.90
2017-08-01T15:41:15.529Z,70.40
2017-08-01T15:43:43.045Z,70.00
2017-08-01T15:46:13.477Z,68.90
2017-08-01T15:48:41.001Z,68.70
2017-08-01T15:51:08.497Z,69.30
2017-08-01T15:53:36.020Z,70.10
2017-08-01T15:56:03.533Z,70.10
2017-08-01T15:58:31.094Z,69.40
2017-08-01T16:00:58.593Z,69.90
2017-08-01T16:03:26.106Z,69.50
2017-08-01T16:05:53.632Z,69.30
2017-08-01T16:08:21.137Z,69.60
2017-08-01T16:10:48.662Z,70.00
2017-08-01T16:13:16.168Z,71.90
2017-08-01T16:15:43.692Z,71.90
2017-08-01T16:18:11.191Z,73.00
2017-08-01T16:20:38.709Z,74.50
2017-08-01T16:23:06.206Z,75.20
2017-08-01T16:25:33.728Z,75.80
2017-08-01T16:28:01.223Z,75.40
2017-08-01T16:30:28.758Z,75.60
2017-08-01T16:32:56.256Z,76.90
2017-08-01T16:35:23.800Z,77.60
2017-08-01T16:37:51.309Z,78.70
2017-08-01T16:40:18.829Z,79.40
2017-08-01T16:42:46.329Z,79.40
2017-08-01T16:45:16.907Z,79.90
2017-08-01T16:47:44.423Z,82.30
2017-08-01T16:50:11.941Z,86.90
2017-08-01T16:52:39.445Z,86.10
2017-08-01T16:55:06.962Z,87.80
2017-08-01T16:57:34.478Z,89.60
2017-08-01T17:00:01.994Z,90.30
2017-08-01T17:02:29.509Z,90.00
2017-08-01T17:04:57.032Z,90.00
2017-08-01T17:07:24.525Z,90.50
2017-08-01T17:09:52.048Z,90.80
2017-08-01T17:12:19.545Z,90.20
2017-08-01T17:14:47.065Z,90.80
2017-08-01T17:17:14.568Z,90.60
2017-08-01T17:19:42.091Z,90.50
2017-08-01T17:22:09.580Z,90.70
2017-08-01T17:24:37.121Z,91.00
2017-08-01T17:27:04.625Z,90.60
2017-08-01T17:29:32.128Z,93.20
2017-08-01T17:31:59.652Z,93.00
2017-08-01T17:34:27.155Z,93.10
2017-08-01T17:36:54.682Z,93.60
2017-08-01T17:39:22.188Z,93.70
2017-08-01T17:41:49.709Z,93.00
2017-08-01T17:44:17.211Z,93.00
2017-08-01T17:46:48.377Z,93.00
2017-08-01T17:49:15.893Z,93.40
2017-08-01T17:51:43.456Z,95.50
2017-08-01T17:54:10.974Z,99.90
2017-08-01T17:56:38.544Z,99.90
2017-08-01T17:59:06.080Z,99.90
2017-08-01T18:01:33.631Z,99.90
2017-08-01T18:04:07.006Z,99.90
2017-08-01T18:06:34.558Z,99.90
2017-08-01T18:11:29.898Z,99.90
2017-08-01T18:13:57.515Z,99.90
2017-08-01T18:16:25.085Z,99.90
2017-08-01T18:18:52.630Z,99.90
2017-08-01T18:21:20.181Z,99.90
2017-08-01T18:23:47.773Z,99.90
2017-08-01T18:26:15.313Z,99.90
2017-08-01T18:28:42.937Z,99.90
2017-08-01T18:31:10.563Z,99.90
2017-08-01T18:33:38.221Z,99.90
2017-08-01T18:36:05.884Z,99.90
2017-08-01T18:38:41.713Z,99.90
2017-08-01T18:41:09.346Z,99.90
2017-08-01T18:43:36.944Z,99.90
2017-08-01T18:46:04.575Z,99.90
2017-08-01T18:48:35.165Z,99.90
2017-08-01T18:51:02.701Z,99.90
2017-08-01T18:53:30.286Z,99.90
2017-08-01T18:55:57.880Z,99.90
2017-08-01T18:58:25.445Z,99.90
2017-08-01T19:00:53.007Z,99.90
2017-08-01T19:03:20.648Z,99.90
2017-08-01T19:05:49.429Z,99.90
2017-08-01T19:08:17.034Z,99.90
2017-08-01T19:10:44.654Z,99.90
2017-08-01T19:13:12.271Z,99.90
2017-08-01T19:15:39.928Z,99.90
2017-08-01T19:18:07.670Z,99.90
2017-08-01T19:20:35.278Z,99.90
2017-08-01T19:23:02.899Z,99.90
2017-08-01T19:25:30.585Z,99.90
2017-08-01T19:27:58.181Z,99.90
2017-08-01T19:30:25.954Z,99.90
2017-08-01T19:32:53.579Z,99.90
2017-08-01T19:35:24.619Z,99.90
2017-08-01T19:37:52.312Z,99.90
2017-08-01T19:40:19.934Z,99.90
2017-08-01T19:42:47.473Z,99.90
2017-08-01T19:45:15.106Z,99.90
2017-08-01T19:47:42.702Z,99.90
2017-08-01T19:50:18.103Z,99.90
2017-08-01T19:52:45.666Z,99.90
2017-08-01T19:55:13.232Z,99.90
2017-08-01T19:57:40.867Z,99.90
2017-08-01T20:00:08.434Z,99.90
2017-08-01T20:02:35.968Z,99.90
2017-08-01T20:05:03.655Z,99.90
2017-08-01T20:07:31.427Z,99.90
2017-08-01T20:09:59.056Z,99.90
2017-08-01T20:12:26.603Z,99.90
2017-08-01T20:14:54.183Z,99.90
2017-08-01T20:17:21.725Z,99.90
2017-08-01T20:19:49.345Z,99.90
2017-08-01T20:22:16.900Z,99.90
2017-08-01T20:24:54.029Z,99.90
2017-08-01T20:27:21.568Z,99.90
2017-08-01T20:29:49.114Z,99.90
2017-08-01T20:32:16.810Z,99.90
2017-08-01T20:34:44.366Z,99.90
2017-08-01T20:37:11.993Z,99.90
2017-08-01T20:39:39.579Z,99.90
2017-08-01T20:42:07.121Z,99.90
2017-08-01T20:44:34.685Z,99.90
2017-08-01T20:47:02.219Z,99.90
2017-08-01T20:49:29.778Z,99.90
2017-08-01T20:51:57.306Z,99.90
2017-08-01T20:54:24.858Z,99.90
2017-08-01T20:56:52.431Z,99.90
2017-08-01T20:59:19.988Z,99.90
2017-08-01T21:01:47.581Z,99.90
2017-08-01T21:04:15.141Z,99.90
2017-08-01T21:06:42.726Z,99.90
2017-08-01T21:09:10.281Z,99.90
2017-08-01T21:11:37.888Z,99.90
2017-08-01T21:14:05.426Z,99.90
2017-08-01T21:16:32.973Z,99.90
2017-08-01T21:19:00.548Z,99.90
2017-08-01T21:21:28.086Z,99.90
2017-08-01T21:23:55.958Z,99.90
2017-08-01T21:26:29.202Z,99.90
2017-08-01T21:28:56.793Z,99.90
2017-08-01T21:31:24.362Z,99.90
2017-08-01T21:33:52.068Z,99.90
2017-08-01T21:36:19.661Z,99.90
2017-08-01T21:38:47.224Z,99.90
2017-08-01T21:41:14.795Z,99.90
2017-08-01T21:43:42.347Z,99.90
2017-08-01T21:46:11.292Z,99.90
2017-08-01T21:48:38.896Z,99.90
2017-08-01T21:51:06.549Z,99.90
2017-08-01T21:53:34.093Z,99.90
2017-08-01T21:56:01.721Z,99.90
2017-08-01T21:58:29.317Z,99.90
2017-08-01T22:00:56.942Z,99.90
2017-08-01T22:03:24.576Z,99.90
2017-08-01T22:05:56.765Z,99.90
2017-08-01T22:08:24.670Z,99.90
2017-08-01T22:10:52.310Z,99.90
2017-08-01T22:13:19.991Z,99.90
2017-08-01T22:15:47.518Z,99.90
2017-08-01T22:18:15.073Z,99.90
2017-08-01T22:20:42.638Z,99.90
2017-08-01T22:23:10.196Z,99.90
2017-08-01T22:25:44.095Z,99.90
2017-08-01T22:28:11.643Z,99.90
2017-08-01T22:30:39.240Z,99.90
2017-08-01T22:33:06.780Z,99.90
2017-08-01T22:35:34.305Z,99.90
2017-08-01T22:38:01.877Z,99.90
2017-08-01T22:40:29.405Z,99.90
2017-08-01T22:42:56.949Z,99.90
2017-08-01T22:45:24.482Z,99.90
2017-08-01T22:47:52.029Z,99.90
2017-08-01T22:50:19.545Z,99.90
2017-08-01T22:52:47.072Z,99.90
2017-08-01T22:55:14.641Z,99.90
2017-08-01T22:57:42.167Z,99.90
2017-08-01T23:00:09.750Z,99.90
2017-08-01T23:02:37.305Z,99.90
2017-08-01T23:05:04.883Z,99.90
2017-08-01T23:07:32.455Z,99.90
2017-08-01T23:09:59.996Z,99.90
2017-08-01T23:12:27.529Z,99.90
2017-08-01T23:14:55.057Z,99.90
2017-08-01T23:17:22.583Z,99.90
2017-08-01T23:19:50.161Z,99.90
2017-08-01T23:22:17.723Z,99.90
2017-08-01T23:24:49.870Z,99.90
2017-08-01T23:27:17.415Z,99.90
2017-08-01T23:29:44.997Z,99.90
2017-08-01T23:32:12.521Z,99.90
2017-08-01T23:34:40.084Z,99.90
2017-08-01T23:37:07.634Z,99.90
2017-08-01T23:39:35.172Z,99.90
2017-08-01T23:42:02.929Z,99.90
2017-08-01T23:44:30.482Z,99.90
2017-08-01T23:46:58.067Z,99.90
2017-08-01T23:49:25.653Z,99.90
2017-08-01T23:51:53.255Z,99.90
2017-08-01T23:54:20.824Z,99.90
2017-08-01T23:56:48.354Z,99.90
2017-08-01T23:59:15.899Z,99.90
